sensor_id;sensor_type;location;lat;lon;timestamp;pressure;altitude;pressure_sealevel;temperature;humidity
8298;BME280;4187;42.778;23.242;2023-03-22T00:00:54;94933.63;;;10.75;100.00
8298;BME280;4187;42.778;23.242;2023-03-22T00:03:22;94956.03;;;10.97;100.00
8298;BME280;4187;42.778;23.242;2023-03-22T00:05:55;94956.34;;;10.94;100.00
8298;BME280;4187;42.778;23.242;2023-03-22T00:08:21;94949.25;;;10.95;100.00
8298;BME280;4187;42.778;23.242;2023-03-22T00:10:48;94943.59;;;10.90;100.00
8298;BME280;4187;42.778;23.242;2023-03-22T00:13:15;94945.09;;;10.92;100.00
8298;BME280;4187;42.778;23.242;2023-03-22T00:15:42;94950.06;;;10.95;100.00
8298;BME280;4187;42.778;23.242;2023-03-22T00:18:14;94936.31;;;10.84;100.00
8298;BME280;4187;42.778;23.242;2023-03-22T00:20:46;94953.66;;;10.86;100.00
8298;BME280;4187;42.778;23.242;2023-03-22T00:23:13;94946.13;;;10.73;100.00
8298;BME280;4187;42.778;23.242;2023-03-22T00:25:39;94951.56;;;10.54;100.00
8298;BME280;4187;42.778;23.242;2023-03-22T00:28:06;94958.38;;;10.39;100.00
8298;BME280;4187;42.778;23.242;2023-03-22T00:30:33;94953.69;;;10.33;100.00
8298;BME280;4187;42.778;23.242;2023-03-22T00:33:00;94944.38;;;10.21;100.00
8298;BME280;4187;42.778;23.242;2023-03-22T00:35:28;94920.38;;;9.97;100.00
8298;BME280;4187;42.778;23.242;2023-03-22T00:37:55;94949.38;;;9.97;100.00
8298;BME280;4187;42.778;23.242;2023-03-22T00:40:22;94955.69;;;9.86;100.00
8298;BME280;4187;42.778;23.242;2023-03-22T00:42:49;94948.00;;;9.75;100.00
8298;BME280;4187;42.778;23.242;2023-03-22T00:45:16;94946.88;;;9.78;100.00
8298;BME280;4187;42.778;23.242;2023-03-22T00:47:42;94952.44;;;9.75;100.00
8298;BME280;4187;42.778;23.242;2023-03-22T00:50:09;94946.69;;;9.61;100.00
8298;BME280;4187;42.778;23.242;2023-03-22T00:52:38;94941.16;;;9.55;100.00
8298;BME280;4187;42.778;23.242;2023-03-22T00:55:07;94941.59;;;9.50;100.00
8298;BME280;4187;42.778;23.242;2023-03-22T00:57:34;94937.31;;;9.49;100.00
8298;BME280;4187;42.778;23.242;2023-03-22T01:00:02;94943.59;;;9.39;100.00
8298;BME280;4187;42.778;23.242;2023-03-22T01:02:40;94937.78;;;9.35;100.00
8298;BME280;4187;42.778;23.242;2023-03-22T01:05:08;94930.19;;;9.32;100.00
8298;BME280;4187;42.778;23.242;2023-03-22T01:07:42;94928.09;;;9.36;100.00
8298;BME280;4187;42.778;23.242;2023-03-22T01:10:10;94932.63;;;9.43;100.00
8298;BME280;4187;42.778;23.242;2023-03-22T01:12:37;94933.16;;;9.47;100.00
8298;BME280;4187;42.778;23.242;2023-03-22T01:15:05;94927.66;;;9.40;100.00
8298;BME280;4187;42.778;23.242;2023-03-22T01:17:32;94915.00;;;9.17;100.00
8298;BME280;4187;42.778;23.242;2023-03-22T01:20:02;94925.91;;;9.31;100.00
8298;BME280;4187;42.778;23.242;2023-03-22T01:22:31;94924.47;;;9.37;100.00
8298;BME280;4187;42.778;23.242;2023-03-22T01:24:59;94922.78;;;9.45;100.00
8298;BME280;4187;42.778;23.242;2023-03-22T01:27:26;94920.16;;;9.45;100.00
8298;BME280;4187;42.778;23.242;2023-03-22T01:29:52;94920.06;;;9.37;100.00
8298;BME280;4187;42.778;23.242;2023-03-22T01:32:19;94917.03;;;9.32;100.00
8298;BME280;4187;42.778;23.242;2023-03-22T01:34:46;94921.19;;;9.35;100.00
8298;BME280;4187;42.778;23.242;2023-03-22T01:37:13;94913.66;;;9.40;100.00
8298;BME280;4187;42.778;23.242;2023-03-22T01:39:40;94915.84;;;9.44;100.00
8298;BME280;4187;42.778;23.242;2023-03-22T01:42:11;94916.38;;;9.48;100.00
8298;BME280;4187;42.778;23.242;2023-03-22T01:44:41;94878.59;;;9.39;100.00
8298;BME280;4187;42.778;23.242;2023-03-22T01:47:09;94902.84;;;9.60;100.00
8298;BME280;4187;42.778;23.242;2023-03-22T01:49:37;94908.13;;;9.60;100.00
8298;BME280;4187;42.778;23.242;2023-03-22T01:52:09;94911.75;;;9.59;100.00
8298;BME280;4187;42.778;23.242;2023-03-22T01:54:39;94911.50;;;9.53;100.00
8298;BME280;4187;42.778;23.242;2023-03-22T01:57:07;94905.13;;;9.55;100.00
8298;BME280;4187;42.778;23.242;2023-03-22T01:59:36;94906.91;;;9.55;100.00
8298;BME280;4187;42.778;23.242;2023-03-22T02:02:04;94910.56;;;9.44;100.00
8298;BME280;4187;42.778;23.242;2023-03-22T02:04:33;94906.44;;;9.42;100.00
8298;BME280;4187;42.778;23.242;2023-03-22T02:07:05;94910.84;;;9.51;100.00
8298;BME280;4187;42.778;23.242;2023-03-22T02:09:34;94914.97;;;9.53;100.00
8298;BME280;4187;42.778;23.242;2023-03-22T02:12:11;94910.66;;;9.52;100.00
8298;BME280;4187;42.778;23.242;2023-03-22T02:14:54;94918.44;;;9.54;100.00
8298;BME280;4187;42.778;23.242;2023-03-22T02:17:29;94912.84;;;9.57;100.00
8298;BME280;4187;42.778;23.242;2023-03-22T02:20:44;94902.84;;;9.60;100.00
8298;BME280;4187;42.778;23.242;2023-03-22T02:26:52;94912.66;;;9.68;100.00
8298;BME280;4187;42.778;23.242;2023-03-22T02:29:30;94914.47;;;9.68;100.00
8298;BME280;4187;42.778;23.242;2023-03-22T02:38:50;94924.78;;;9.79;100.00
8298;BME280;4187;42.778;23.242;2023-03-22T02:41:27;94927.13;;;9.82;100.00
8298;BME280;4187;42.778;23.242;2023-03-22T02:44:03;94924.19;;;9.85;100.00
8298;BME280;4187;42.778;23.242;2023-03-22T02:46:38;94928.50;;;9.86;100.00
8298;BME280;4187;42.778;23.242;2023-03-22T02:49:13;94921.72;;;9.83;100.00
8298;BME280;4187;42.778;23.242;2023-03-22T02:51:44;94901.81;;;9.71;100.00
8298;BME280;4187;42.778;23.242;2023-03-22T02:54:17;94940.09;;;9.93;100.00
8298;BME280;4187;42.778;23.242;2023-03-22T02:56:47;94932.13;;;10.02;100.00
8298;BME280;4187;42.778;23.242;2023-03-22T02:59:16;94932.25;;;10.01;100.00
8298;BME280;4187;42.778;23.242;2023-03-22T03:01:48;94941.97;;;10.00;100.00
8298;BME280;4187;42.778;23.242;2023-03-22T03:04:18;94943.28;;;9.96;100.00
8298;BME280;4187;42.778;23.242;2023-03-22T03:06:48;94931.44;;;10.00;100.00
8298;BME280;4187;42.778;23.242;2023-03-22T03:09:18;94932.56;;;9.98;100.00
8298;BME280;4187;42.778;23.242;2023-03-22T03:11:47;94934.22;;;9.99;100.00
8298;BME280;4187;42.778;23.242;2023-03-22T03:14:22;94937.41;;;10.02;100.00
8298;BME280;4187;42.778;23.242;2023-03-22T03:17:00;94928.66;;;10.02;100.00
8298;BME280;4187;42.778;23.242;2023-03-22T03:19:35;94938.38;;;10.01;100.00
8298;BME280;4187;42.778;23.242;2023-03-22T03:22:12;94937.84;;;9.98;100.00
8298;BME280;4187;42.778;23.242;2023-03-22T03:24:47;94933.41;;;9.98;100.00
8298;BME280;4187;42.778;23.242;2023-03-22T03:27:16;94930.63;;;10.00;100.00
8298;BME280;4187;42.778;23.242;2023-03-22T03:29:49;94936.19;;;9.97;100.00
8298;BME280;4187;42.778;23.242;2023-03-22T03:32:23;94935.41;;;9.87;100.00
8298;BME280;4187;42.778;23.242;2023-03-22T03:34:55;94934.75;;;9.85;100.00
8298;BME280;4187;42.778;23.242;2023-03-22T03:37:27;94941.00;;;9.84;100.00
8298;BME280;4187;42.778;23.242;2023-03-22T03:40:01;94941.13;;;9.82;100.00
8298;BME280;4187;42.778;23.242;2023-03-22T03:42:31;94941.00;;;9.84;100.00
8298;BME280;4187;42.778;23.242;2023-03-22T03:44:58;94942.34;;;9.88;100.00
8298;BME280;4187;42.778;23.242;2023-03-22T03:47:27;94950.94;;;9.90;100.00
8298;BME280;4187;42.778;23.242;2023-03-22T03:49:54;94942.72;;;9.75;100.00
8298;BME280;4187;42.778;23.242;2023-03-22T03:52:21;94944.22;;;9.78;100.00
8298;BME280;4187;42.778;23.242;2023-03-22T03:54:50;94939.41;;;9.73;100.00
8298;BME280;4187;42.778;23.242;2023-03-22T03:57:19;94945.19;;;9.77;100.00
8298;BME280;4187;42.778;23.242;2023-03-22T03:59:46;94948.22;;;9.82;100.00
8298;BME280;4187;42.778;23.242;2023-03-22T04:02:13;94951.28;;;9.77;100.00
8298;BME280;4187;42.778;23.242;2023-03-22T04:04:41;94919.25;;;9.54;100.00
8298;BME280;4187;42.778;23.242;2023-03-22T04:07:08;94959.38;;;9.76;100.00
8298;BME280;4187;42.778;23.242;2023-03-22T04:09:36;94962.97;;;9.75;100.00
8298;BME280;4187;42.778;23.242;2023-03-22T04:12:05;94959.66;;;9.73;100.00
8298;BME280;4187;42.778;23.242;2023-03-22T04:14:35;94967.00;;;9.69;100.00
8298;BME280;4187;42.778;23.242;2023-03-22T04:17:02;94959.09;;;9.69;100.00
8298;BME280;4187;42.778;23.242;2023-03-22T04:19:29;94964.44;;;9.59;100.00
8298;BME280;4187;42.778;23.242;2023-03-22T04:21:56;94930.97;;;9.42;100.00
8298;BME280;4187;42.778;23.242;2023-03-22T04:24:25;94942.72;;;9.48;100.00
8298;BME280;4187;42.778;23.242;2023-03-22T04:26:52;94963.75;;;9.57;100.00
8298;BME280;4187;42.778;23.242;2023-03-22T04:29:18;94962.78;;;9.58;100.00
8298;BME280;4187;42.778;23.242;2023-03-22T04:31:47;94959.56;;;9.65;100.00
8298;BME280;4187;42.778;23.242;2023-03-22T04:34:14;94959.69;;;9.63;100.00
8298;BME280;4187;42.778;23.242;2023-03-22T04:36:41;94959.84;;;9.61;100.00
8298;BME280;4187;42.778;23.242;2023-03-22T04:39:10;94951.13;;;9.61;100.00
8298;BME280;4187;42.778;23.242;2023-03-22T04:41:37;94948.47;;;9.61;100.00
8298;BME280;4187;42.778;23.242;2023-03-22T04:44:05;94954.00;;;9.68;100.00
8298;BME280;4187;42.778;23.242;2023-03-22T04:46:34;94955.72;;;9.59;100.00
8298;BME280;4187;42.778;23.242;2023-03-22T04:49:04;94926.00;;;9.39;100.00
8298;BME280;4187;42.778;23.242;2023-03-22T04:51:31;94963.00;;;9.65;100.00
8298;BME280;4187;42.778;23.242;2023-03-22T04:53:58;94966.84;;;9.71;100.00
8298;BME280;4187;42.778;23.242;2023-03-22T04:56:25;94969.94;;;9.66;100.00
8298;BME280;4187;42.778;23.242;2023-03-22T04:58:52;94971.50;;;9.59;100.00
8298;BME280;4187;42.778;23.242;2023-03-22T05:01:19;94974.81;;;9.61;100.00
8298;BME280;4187;42.778;23.242;2023-03-22T05:03:46;94982.53;;;9.72;100.00
8298;BME280;4187;42.778;23.242;2023-03-22T05:06:14;94984.03;;;9.75;100.00
8298;BME280;4187;42.778;23.242;2023-03-22T05:08:41;94983.75;;;9.78;100.00
8298;BME280;4187;42.778;23.242;2023-03-22T05:11:10;94977.91;;;9.84;100.00
8298;BME280;4187;42.778;23.242;2023-03-22T05:13:38;94977.91;;;9.84;100.00
8298;BME280;4187;42.778;23.242;2023-03-22T05:16:06;94983.97;;;9.84;100.00
8298;BME280;4187;42.778;23.242;2023-03-22T05:18:32;94989.50;;;9.91;100.00
8298;BME280;4187;42.778;23.242;2023-03-22T05:21:02;94961.59;;;9.71;100.00
8298;BME280;4187;42.778;23.242;2023-03-22T05:23:32;94998.63;;;9.96;100.00
8298;BME280;4187;42.778;23.242;2023-03-22T05:25:59;94997.66;;;9.97;100.00
8298;BME280;4187;42.778;23.242;2023-03-22T05:28:28;94995.69;;;9.99;100.00
8298;BME280;4187;42.778;23.242;2023-03-22T05:30:56;95003.72;;;9.98;100.00
8298;BME280;4187;42.778;23.242;2023-03-22T05:33:23;95002.84;;;9.89;100.00
8298;BME280;4187;42.778;23.242;2023-03-22T05:35:49;95006.25;;;9.99;100.00
8298;BME280;4187;42.778;23.242;2023-03-22T05:38:16;95009.72;;;10.00;100.00
8298;BME280;4187;42.778;23.242;2023-03-22T05:40:45;95006.38;;;9.98;100.00
8298;BME280;4187;42.778;23.242;2023-03-22T05:43:11;94989.16;;;9.76;100.00
8298;BME280;4187;42.778;23.242;2023-03-22T05:45:38;95009.72;;;10.00;100.00
8298;BME280;4187;42.778;23.242;2023-03-22T05:48:06;95005.56;;;9.97;100.00
8298;BME280;4187;42.778;23.242;2023-03-22T05:50:33;95010.97;;;9.96;100.00
8298;BME280;4187;42.778;23.242;2023-03-22T05:53:00;94974.84;;;9.79;100.00
8298;BME280;4187;42.778;23.242;2023-03-22T05:55:27;95008.44;;;10.04;100.00
8298;BME280;4187;42.778;23.242;2023-03-22T05:57:58;95021.69;;;10.12;100.00
8298;BME280;4187;42.778;23.242;2023-03-22T06:00:26;95024.91;;;10.15;100.00
8298;BME280;4187;42.778;23.242;2023-03-22T06:02:56;95024.16;;;10.23;100.00
8298;BME280;4187;42.778;23.242;2023-03-22T06:05:28;95026.50;;;10.26;100.00
8298;BME280;4187;42.778;23.242;2023-03-22T06:07:55;95026.78;;;10.23;100.00
8298;BME280;4187;42.778;23.242;2023-03-22T06:10:21;95035.63;;;10.32;100.00
8298;BME280;4187;42.778;23.242;2023-03-22T06:12:51;95034.25;;;10.28;100.00
8298;BME280;4187;42.778;23.242;2023-03-22T06:15:19;95042.78;;;10.39;100.00
8298;BME280;4187;42.778;23.242;2023-03-22T06:17:46;95037.22;;;10.42;100.00
8298;BME280;4187;42.778;23.242;2023-03-22T06:20:13;95044.53;;;10.48;100.00
8298;BME280;4187;42.778;23.242;2023-03-22T06:22:40;95041.16;;;10.56;100.00
8298;BME280;4187;42.778;23.242;2023-03-22T06:25:08;95039.78;;;10.69;100.00
8298;BME280;4187;42.778;23.242;2023-03-22T06:27:35;95042.44;;;10.69;100.00
8298;BME280;4187;42.778;23.242;2023-03-22T06:30:03;95051.09;;;10.79;100.00
8298;BME280;4187;42.778;23.242;2023-03-22T06:32:31;95048.06;;;10.74;100.00
8298;BME280;4187;42.778;23.242;2023-03-22T06:34:58;95045.44;;;10.74;100.00
8298;BME280;4187;42.778;23.242;2023-03-22T06:37:27;95045.97;;;10.78;100.00
8298;BME280;4187;42.778;23.242;2023-03-22T06:39:53;95049.13;;;10.81;100.00
8298;BME280;4187;42.778;23.242;2023-03-22T06:42:20;95050.50;;;10.86;100.00
8298;BME280;4187;42.778;23.242;2023-03-22T06:44:47;95053.97;;;10.86;100.00
8298;BME280;4187;42.778;23.242;2023-03-22T06:47:14;95027.50;;;10.78;100.00
8298;BME280;4187;42.778;23.242;2023-03-22T06:49:42;95066.53;;;10.92;100.00
8298;BME280;4187;42.778;23.242;2023-03-22T06:52:09;95066.31;;;10.86;100.00
8298;BME280;4187;42.778;23.242;2023-03-22T06:54:36;95057.84;;;11.17;100.00
8298;BME280;4187;42.778;23.242;2023-03-22T06:57:02;95059.75;;;11.33;100.00
8298;BME280;4187;42.778;23.242;2023-03-22T06:59:29;95062.03;;;11.28;100.00
8298;BME280;4187;42.778;23.242;2023-03-22T07:01:56;95065.28;;;11.22;100.00
8298;BME280;4187;42.778;23.242;2023-03-22T07:04:23;95063.13;;;11.17;100.00
8298;BME280;4187;42.778;23.242;2023-03-22T07:06:53;95072.03;;;11.16;100.00
8298;BME280;4187;42.778;23.242;2023-03-22T07:09:20;95073.38;;;11.20;100.00
8298;BME280;4187;42.778;23.242;2023-03-22T07:11:48;95071.03;;;11.17;100.00
8298;BME280;4187;42.778;23.242;2023-03-22T07:14:15;95075.03;;;11.21;100.00
8298;BME280;4187;42.778;23.242;2023-03-22T07:16:42;95075.19;;;11.20;100.00
8298;BME280;4187;42.778;23.242;2023-03-22T07:19:09;95077.22;;;11.26;100.00
8298;BME280;4187;42.778;23.242;2023-03-22T07:21:36;95053.31;;;11.10;100.00
8298;BME280;4187;42.778;23.242;2023-03-22T07:24:05;95079.19;;;11.24;100.00
8298;BME280;4187;42.778;23.242;2023-03-22T07:26:33;95048.28;;;10.99;100.00
8298;BME280;4187;42.778;23.242;2023-03-22T07:29:00;95084.00;;;11.28;100.00
8298;BME280;4187;42.778;23.242;2023-03-22T07:31:27;95087.13;;;11.24;100.00
8298;BME280;4187;42.778;23.242;2023-03-22T07:33:53;95100.31;;;11.24;100.00
8298;BME280;4187;42.778;23.242;2023-03-22T07:36:20;95094.75;;;11.27;100.00
8298;BME280;4187;42.778;23.242;2023-03-22T07:38:50;95103.28;;;11.21;100.00
8298;BME280;4187;42.778;23.242;2023-03-22T07:41:18;95091.56;;;11.06;100.00
8298;BME280;4187;42.778;23.242;2023-03-22T07:43:45;95105.69;;;11.14;100.00
8298;BME280;4187;42.778;23.242;2023-03-22T07:46:12;95105.84;;;11.13;100.00
8298;BME280;4187;42.778;23.242;2023-03-22T07:48:38;95106.75;;;11.04;100.00
8298;BME280;4187;42.778;23.242;2023-03-22T07:51:05;95080.19;;;10.88;100.00
8298;BME280;4187;42.778;23.242;2023-03-22T07:53:32;95116.16;;;11.06;100.00
8298;BME280;4187;42.778;23.242;2023-03-22T07:56:01;95117.59;;;11.01;100.00
8298;BME280;4187;42.778;23.242;2023-03-22T07:58:29;95110.75;;;10.90;100.00
8298;BME280;4187;42.778;23.242;2023-03-22T08:00:56;95124.72;;;11.00;100.00
8298;BME280;4187;42.778;23.242;2023-03-22T08:03:24;95098.06;;;10.76;100.00
8298;BME280;4187;42.778;23.242;2023-03-22T08:05:51;95092.72;;;10.86;100.00
8298;BME280;4187;42.778;23.242;2023-03-22T08:08:18;95125.38;;;11.02;100.00
8298;BME280;4187;42.778;23.242;2023-03-22T08:10:48;95118.91;;;10.97;100.00
8298;BME280;4187;42.778;23.242;2023-03-22T08:13:15;95122.50;;;10.96;100.00
8298;BME280;4187;42.778;23.242;2023-03-22T08:15:43;95123.81;;;10.92;100.00
8298;BME280;4187;42.778;23.242;2023-03-22T08:18:10;95116.69;;;10.92;100.00
8298;BME280;4187;42.778;23.242;2023-03-22T08:20:37;95130.00;;;11.00;100.00
8298;BME280;4187;42.778;23.242;2023-03-22T08:23:04;95126.66;;;10.98;100.00
8298;BME280;4187;42.778;23.242;2023-03-22T08:25:32;95126.28;;;10.93;100.00
8298;BME280;4187;42.778;23.242;2023-03-22T08:27:59;95131.56;;;10.93;100.00
8298;BME280;4187;42.778;23.242;2023-03-22T08:30:26;95130.44;;;10.96;100.00
8298;BME280;4187;42.778;23.242;2023-03-22T08:32:54;95130.44;;;10.96;100.00
8298;BME280;4187;42.778;23.242;2023-03-22T08:35:21;95127.25;;;10.92;100.00
8298;BME280;4187;42.778;23.242;2023-03-22T08:37:52;95129.22;;;10.90;100.00
8298;BME280;4187;42.778;23.242;2023-03-22T08:40:19;95128.19;;;10.83;100.00
8298;BME280;4187;42.778;23.242;2023-03-22T08:42:47;95127.63;;;10.79;100.00
8298;BME280;4187;42.778;23.242;2023-03-22T08:45:14;95129.59;;;10.77;100.00
8298;BME280;4187;42.778;23.242;2023-03-22T08:47:41;95131.94;;;10.80;100.00
8298;BME280;4187;42.778;23.242;2023-03-22T08:50:11;95119.25;;;10.66;100.00
8298;BME280;4187;42.778;23.242;2023-03-22T08:52:38;95134.88;;;10.77;100.00
8298;BME280;4187;42.778;23.242;2023-03-22T08:55:06;95146.19;;;10.88;100.00
8298;BME280;4187;42.778;23.242;2023-03-22T08:57:34;95139.56;;;10.84;100.00
8298;BME280;4187;42.778;23.242;2023-03-22T09:00:01;95134.94;;;10.68;100.00
8298;BME280;4187;42.778;23.242;2023-03-22T09:02:30;95134.72;;;10.61;100.00
8298;BME280;4187;42.778;23.242;2023-03-22T09:04:56;95126.63;;;10.45;100.00
8298;BME280;4187;42.778;23.242;2023-03-22T09:07:25;95142.81;;;10.50;100.00
8298;BME280;4187;42.778;23.242;2023-03-22T09:09:51;95147.84;;;10.44;100.00
8298;BME280;4187;42.778;23.242;2023-03-22T09:12:18;95146.03;;;10.44;100.00
8298;BME280;4187;42.778;23.242;2023-03-22T09:14:45;95142.47;;;10.36;100.00
8298;BME280;4187;42.778;23.242;2023-03-22T09:17:13;95142.19;;;10.39;100.00
8298;BME280;4187;42.778;23.242;2023-03-22T09:19:40;95150.81;;;10.41;100.00
8298;BME280;4187;42.778;23.242;2023-03-22T09:22:08;95140.00;;;10.34;100.00
8298;BME280;4187;42.778;23.242;2023-03-22T09:24:36;95145.00;;;10.37;100.00
8298;BME280;4187;42.778;23.242;2023-03-22T09:27:02;95145.28;;;10.34;100.00
8298;BME280;4187;42.778;23.242;2023-03-22T09:29:30;95149.16;;;10.30;100.00
8298;BME280;4187;42.778;23.242;2023-03-22T09:31:56;95148.06;;;10.33;100.00
8298;BME280;4187;42.778;23.242;2023-03-22T09:34:23;95144.88;;;10.29;100.00
8298;BME280;4187;42.778;23.242;2023-03-22T09:36:51;95144.69;;;10.40;100.00
8298;BME280;4187;42.778;23.242;2023-03-22T09:39:18;95153.38;;;10.50;100.00
8298;BME280;4187;42.778;23.242;2023-03-22T09:41:48;95149.78;;;10.51;100.00
8298;BME280;4187;42.778;23.242;2023-03-22T09:44:20;95138.81;;;10.46;100.00
8298;BME280;4187;42.778;23.242;2023-03-22T09:46:53;95121.53;;;10.34;100.00
8298;BME280;4187;42.778;23.242;2023-03-22T09:49:24;95149.38;;;10.46;100.00
8298;BME280;4187;42.778;23.242;2023-03-22T09:51:53;95148.00;;;10.42;100.00
8298;BME280;4187;42.778;23.242;2023-03-22T09:54:28;95152.31;;;10.43;100.00
8298;BME280;4187;42.778;23.242;2023-03-22T09:57:01;95135.56;;;10.35;100.00
8298;BME280;4187;42.778;23.242;2023-03-22T09:59:37;95143.03;;;10.39;100.00
8298;BME280;4187;42.778;23.242;2023-03-22T10:02:23;95154.63;;;10.46;100.00
8298;BME280;4187;42.778;23.242;2023-03-22T10:04:58;95146.22;;;10.43;100.00
8298;BME280;4187;42.778;23.242;2023-03-22T10:07:29;95153.84;;;10.46;100.00
8298;BME280;4187;42.778;23.242;2023-03-22T10:10:06;95150.81;;;10.41;100.00
8298;BME280;4187;42.778;23.242;2023-03-22T10:12:39;95156.47;;;10.46;100.00
8298;BME280;4187;42.778;23.242;2023-03-22T10:15:12;95156.47;;;10.46;100.00
8298;BME280;4187;42.778;23.242;2023-03-22T10:17:41;95150.66;;;10.42;100.00
8298;BME280;4187;42.778;23.242;2023-03-22T10:20:18;95151.09;;;10.38;100.00
8298;BME280;4187;42.778;23.242;2023-03-22T10:22:50;95159.31;;;10.35;100.00
8298;BME280;4187;42.778;23.242;2023-03-22T10:25:21;95153.88;;;10.36;100.00
8298;BME280;4187;42.778;23.242;2023-03-22T10:27:51;95158.19;;;10.37;100.00
8298;BME280;4187;42.778;23.242;2023-03-22T10:30:19;95163.56;;;10.45;100.00
8298;BME280;4187;42.778;23.242;2023-03-22T10:32:51;95157.16;;;10.48;100.00
8298;BME280;4187;42.778;23.242;2023-03-22T10:35:20;95166.97;;;10.55;100.00
8298;BME280;4187;42.778;23.242;2023-03-22T10:37:48;95159.13;;;10.63;100.00
8298;BME280;4187;42.778;23.242;2023-03-22T10:40:18;95157.03;;;10.67;100.00
8298;BME280;4187;42.778;23.242;2023-03-22T10:42:54;95138.59;;;10.57;100.00
8298;BME280;4187;42.778;23.242;2023-03-22T10:45:23;95159.09;;;10.73;100.00
8298;BME280;4187;42.778;23.242;2023-03-22T10:47:54;95153.94;;;10.71;100.00
8298;BME280;4187;42.778;23.242;2023-03-22T10:50:26;95163.03;;;10.87;100.00
8298;BME280;4187;42.778;23.242;2023-03-22T10:52:58;95128.38;;;10.72;100.00
8298;BME280;4187;42.778;23.242;2023-03-22T10:55:27;95168.59;;;11.01;100.00
8298;BME280;4187;42.778;23.242;2023-03-22T10:58:01;95172.00;;;11.11;100.00
8298;BME280;4187;42.778;23.242;2023-03-22T11:00:36;95165.06;;;11.10;100.00
8298;BME280;4187;42.778;23.242;2023-03-22T11:03:04;95167.25;;;11.15;100.00
8298;BME280;4187;42.778;23.242;2023-03-22T11:05:32;95165.59;;;11.14;100.00
8298;BME280;4187;42.778;23.242;2023-03-22T11:08:01;95152.53;;;11.12;100.00
8298;BME280;4187;42.778;23.242;2023-03-22T11:10:30;95159.69;;;11.20;100.00
8298;BME280;4187;42.778;23.242;2023-03-22T11:13:16;95160.78;;;11.27;100.00
8298;BME280;4187;42.778;23.242;2023-03-22T11:15:51;95159.47;;;11.31;100.00
8298;BME280;4187;42.778;23.242;2023-03-22T11:18:19;95156.59;;;11.42;100.00
8298;BME280;4187;42.778;23.242;2023-03-22T11:20:55;95160.22;;;11.41;100.00
8298;BME280;4187;42.778;23.242;2023-03-22T11:23:26;95136.00;;;11.28;100.00
8298;BME280;4187;42.778;23.242;2023-03-22T11:25:55;95165.38;;;11.43;100.00
8298;BME280;4187;42.778;23.242;2023-03-22T11:28:27;95160.97;;;11.33;100.00
8298;BME280;4187;42.778;23.242;2023-03-22T11:31:02;95148.25;;;11.29;100.00
8298;BME280;4187;42.778;23.242;2023-03-22T11:33:31;95109.31;;;10.96;100.00
8298;BME280;4187;42.778;23.242;2023-03-22T11:35:59;95143.56;;;11.23;100.00
8298;BME280;4187;42.778;23.242;2023-03-22T11:38:33;95142.81;;;11.13;100.00
8298;BME280;4187;42.778;23.242;2023-03-22T11:41:02;95130.66;;;11.02;100.00
8298;BME280;4187;42.778;23.242;2023-03-22T11:43:33;95142.94;;;11.11;100.00
8298;BME280;4187;42.778;23.242;2023-03-22T11:46:02;95098.47;;;10.81;100.00
8298;BME280;4187;42.778;23.242;2023-03-22T11:48:30;95105.75;;;10.87;100.00
8298;BME280;4187;42.778;23.242;2023-03-22T11:51:04;95131.72;;;11.09;100.00
8298;BME280;4187;42.778;23.242;2023-03-22T11:53:35;95139.88;;;11.16;100.00
8298;BME280;4187;42.778;23.242;2023-03-22T11:56:04;95136.41;;;11.15;100.00
8298;BME280;4187;42.778;23.242;2023-03-22T11:58:49;95136.09;;;11.18;100.00
8298;BME280;4187;42.778;23.242;2023-03-22T12:01:25;95136.03;;;11.10;100.00
8298;BME280;4187;42.778;23.242;2023-03-22T12:03:56;95139.25;;;11.22;100.00
8298;BME280;4187;42.778;23.242;2023-03-22T12:06:27;95144.09;;;11.26;100.00
8298;BME280;4187;42.778;23.242;2023-03-22T12:08:58;95137.50;;;11.30;100.00
8298;BME280;4187;42.778;23.242;2023-03-22T12:11:32;95131.41;;;11.30;100.00
8298;BME280;4187;42.778;23.242;2023-03-22T12:14:07;95143.09;;;11.45;100.00
8298;BME280;4187;42.778;23.242;2023-03-22T12:16:46;95137.03;;;11.53;100.00
8298;BME280;4187;42.778;23.242;2023-03-22T12:19:21;95137.41;;;11.58;100.00
8298;BME280;4187;42.778;23.242;2023-03-22T12:21:54;95136.41;;;11.59;100.00
8298;BME280;4187;42.778;23.242;2023-03-22T12:24:25;95132.03;;;11.67;100.00
8298;BME280;4187;42.778;23.242;2023-03-22T12:26:57;95127.56;;;11.68;100.00
8298;BME280;4187;42.778;23.242;2023-03-22T12:29:27;95140.88;;;11.76;100.00
8298;BME280;4187;42.778;23.242;2023-03-22T12:31:59;95126.22;;;11.64;100.00
8298;BME280;4187;42.778;23.242;2023-03-22T12:34:35;95140.72;;;11.77;100.00
8298;BME280;4187;42.778;23.242;2023-03-22T12:37:06;95135.94;;;11.81;100.00
8298;BME280;4187;42.778;23.242;2023-03-22T12:39:38;95137.44;;;11.83;100.00
8298;BME280;4187;42.778;23.242;2023-03-22T12:42:14;95131.50;;;11.89;100.00
8298;BME280;4187;42.778;23.242;2023-03-22T12:44:46;95126.22;;;11.89;100.00
8298;BME280;4187;42.778;23.242;2023-03-22T12:47:17;95128.19;;;11.87;100.00
8298;BME280;4187;42.778;23.242;2023-03-22T12:49:53;95138.00;;;11.95;100.00
8298;BME280;4187;42.778;23.242;2023-03-22T12:52:25;95135.25;;;12.05;100.00
8298;BME280;4187;42.778;23.242;2023-03-22T12:54:57;95141.25;;;12.15;100.00
8298;BME280;4187;42.778;23.242;2023-03-22T12:57:25;95144.94;;;12.22;100.00
8298;BME280;4187;42.778;23.242;2023-03-22T12:59:55;95143.00;;;12.32;100.00
8298;BME280;4187;42.778;23.242;2023-03-22T13:02:26;95103.91;;;12.18;100.00
8298;BME280;4187;42.778;23.242;2023-03-22T13:04:57;95131.44;;;12.41;100.00
8298;BME280;4187;42.778;23.242;2023-03-22T13:07:36;95135.16;;;12.56;100.00
8298;BME280;4187;42.778;23.242;2023-03-22T13:13:14;95140.31;;;12.66;100.00
8298;BME280;4187;42.778;23.242;2023-03-22T13:15:58;95104.69;;;12.52;100.00
8298;BME280;4187;42.778;23.242;2023-03-22T13:18:56;95132.84;;;12.61;100.00
8298;BME280;4187;42.778;23.242;2023-03-22T13:21:19;95122.25;;;12.61;100.00
8298;BME280;4187;42.778;23.242;2023-03-22T13:23:57;95132.69;;;12.63;100.00
8298;BME280;4187;42.778;23.242;2023-03-22T13:26:38;95121.63;;;12.67;100.00
8298;BME280;4187;42.778;23.242;2023-03-22T13:29:15;95120.84;;;12.83;100.00
8298;BME280;4187;42.778;23.242;2023-03-22T13:31:54;95125.50;;;12.89;100.00